sensor_id;sensor_type;location;lat;lon;timestamp;P1;durP1;ratioP1;P2;durP2;ratioP2
71677;SDS011;59511;52.136;6.206;2023-10-09T00:00:50;9.63;;;5.60;;
71677;SDS011;59511;52.136;6.206;2023-10-09T00:03:19;10.02;;;6.75;;
71677;SDS011;59511;52.136;6.206;2023-10-09T00:05:48;9.98;;;5.90;;
71677;SDS011;59511;52.136;6.206;2023-10-09T00:08:17;8.90;;;6.07;;
71677;SDS011;59511;52.136;6.206;2023-10-09T00:10:56;9.05;;;6.25;;
71677;SDS011;59511;52.136;6.206;2023-10-09T00:13:24;9.10;;;5.82;;
71677;SDS011;59511;52.136;6.206;2023-10-09T00:15:56;10.38;;;6.30;;
71677;SDS011;59511;52.136;6.206;2023-10-09T00:18:26;9.93;;;6.10;;
71677;SDS011;59511;52.136;6.206;2023-10-09T00:20:58;9.30;;;5.63;;
71677;SDS011;59511;52.136;6.206;2023-10-09T00:23:36;10.38;;;6.88;;
71677;SDS011;59511;52.136;6.206;2023-10-09T00:26:02;12.10;;;6.43;;
71677;SDS011;59511;52.136;6.206;2023-10-09T00:28:37;11.20;;;6.38;;
71677;SDS011;59511;52.136;6.206;2023-10-09T00:31:08;11.20;;;6.60;;
71677;SDS011;59511;52.136;6.206;2023-10-09T00:33:40;10.65;;;6.45;;
71677;SDS011;59511;52.136;6.206;2023-10-09T00:36:08;10.98;;;7.38;;
71677;SDS011;59511;52.136;6.206;2023-10-09T00:38:34;11.63;;;7.07;;
71677;SDS011;59511;52.136;6.206;2023-10-09T00:41:01;10.48;;;7.07;;
71677;SDS011;59511;52.136;6.206;2023-10-09T00:43:35;11.38;;;6.93;;
71677;SDS011;59511;52.136;6.206;2023-10-09T00:46:02;11.32;;;7.18;;
71677;SDS011;59511;52.136;6.206;2023-10-09T00:48:29;12.63;;;8.23;;
71677;SDS011;59511;52.136;6.206;2023-10-09T00:50:57;12.00;;;7.10;;
71677;SDS011;59511;52.136;6.206;2023-10-09T00:53:25;11.45;;;7.45;;
71677;SDS011;59511;52.136;6.206;2023-10-09T00:56:01;11.07;;;7.30;;
71677;SDS011;59511;52.136;6.206;2023-10-09T00:58:44;11.68;;;7.10;;
71677;SDS011;59511;52.136;6.206;2023-10-09T01:01:12;14.25;;;8.43;;
71677;SDS011;59511;52.136;6.206;2023-10-09T01:03:41;11.33;;;6.90;;
71677;SDS011;59511;52.136;6.206;2023-10-09T01:06:08;13.55;;;8.23;;
71677;SDS011;59511;52.136;6.206;2023-10-09T01:08:37;12.88;;;8.60;;
71677;SDS011;59511;52.136;6.206;2023-10-09T01:13:38;14.15;;;8.43;;
71677;SDS011;59511;52.136;6.206;2023-10-09T01:16:11;14.47;;;8.80;;
71677;SDS011;59511;52.136;6.206;2023-10-09T01:18:40;12.95;;;8.18;;
71677;SDS011;59511;52.136;6.206;2023-10-09T01:21:06;12.30;;;8.20;;
71677;SDS011;59511;52.136;6.206;2023-10-09T01:23:32;14.73;;;8.20;;
71677;SDS011;59511;52.136;6.206;2023-10-09T01:25:57;15.40;;;8.90;;
71677;SDS011;59511;52.136;6.206;2023-10-09T01:28:22;14.60;;;8.53;;
71677;SDS011;59511;52.136;6.206;2023-10-09T01:30:49;14.52;;;8.60;;
71677;SDS011;59511;52.136;6.206;2023-10-09T01:33:16;14.93;;;9.18;;
71677;SDS011;59511;52.136;6.206;2023-10-09T01:35:49;13.77;;;8.40;;
71677;SDS011;59511;52.136;6.206;2023-10-09T01:38:15;15.80;;;9.13;;
71677;SDS011;59511;52.136;6.206;2023-10-09T01:40:41;15.10;;;8.50;;
71677;SDS011;59511;52.136;6.206;2023-10-09T01:43:08;15.65;;;9.15;;
71677;SDS011;59511;52.136;6.206;2023-10-09T01:45:35;16.08;;;9.68;;
71677;SDS011;59511;52.136;6.206;2023-10-09T01:48:11;15.82;;;9.10;;
71677;SDS011;59511;52.136;6.206;2023-10-09T01:50:37;16.25;;;9.40;;
71677;SDS011;59511;52.136;6.206;2023-10-09T01:53:06;15.47;;;9.07;;
71677;SDS011;59511;52.136;6.206;2023-10-09T01:55:33;16.52;;;10.00;;
71677;SDS011;59511;52.136;6.206;2023-10-09T01:58:05;15.60;;;9.73;;
71677;SDS011;59511;52.136;6.206;2023-10-09T02:00:42;16.38;;;9.77;;
71677;SDS011;59511;52.136;6.206;2023-10-09T02:03:09;16.88;;;9.50;;
71677;SDS011;59511;52.136;6.206;2023-10-09T02:05:37;17.23;;;9.70;;
71677;SDS011;59511;52.136;6.206;2023-10-09T02:08:03;17.27;;;10.25;;
71677;SDS011;59511;52.136;6.206;2023-10-09T02:10:29;17.83;;;10.07;;
71677;SDS011;59511;52.136;6.206;2023-10-09T02:13:05;17.25;;;10.15;;
71677;SDS011;59511;52.136;6.206;2023-10-09T02:15:42;18.83;;;10.07;;
71677;SDS011;59511;52.136;6.206;2023-10-09T02:18:08;17.98;;;10.25;;
71677;SDS011;59511;52.136;6.206;2023-10-09T02:26:18;16.98;;;10.10;;
71677;SDS011;59511;52.136;6.206;2023-10-09T02:28:51;19.05;;;10.63;;
71677;SDS011;59511;52.136;6.206;2023-10-09T02:31:29;17.07;;;10.37;;
71677;SDS011;59511;52.136;6.206;2023-10-09T02:34:16;17.65;;;10.85;;
71677;SDS011;59511;52.136;6.206;2023-10-09T02:36:42;18.27;;;10.80;;
71677;SDS011;59511;52.136;6.206;2023-10-09T02:39:08;20.63;;;11.40;;
71677;SDS011;59511;52.136;6.206;2023-10-09T02:41:52;19.40;;;11.13;;
71677;SDS011;59511;52.136;6.206;2023-10-09T02:44:23;18.95;;;11.23;;
71677;SDS011;59511;52.136;6.206;2023-10-09T02:46:50;18.67;;;11.07;;
71677;SDS011;59511;52.136;6.206;2023-10-09T02:49:15;20.53;;;11.33;;
71677;SDS011;59511;52.136;6.206;2023-10-09T02:51:41;21.20;;;11.90;;
71677;SDS011;59511;52.136;6.206;2023-10-09T02:54:07;22.08;;;11.55;;
71677;SDS011;59511;52.136;6.206;2023-10-09T02:56:49;20.03;;;11.50;;
71677;SDS011;59511;52.136;6.206;2023-10-09T02:59:31;22.27;;;11.80;;
71677;SDS011;59511;52.136;6.206;2023-10-09T03:01:56;20.38;;;11.23;;
71677;SDS011;59511;52.136;6.206;2023-10-09T03:04:24;19.73;;;10.90;;
71677;SDS011;59511;52.136;6.206;2023-10-09T03:06:55;19.20;;;10.88;;
71677;SDS011;59511;52.136;6.206;2023-10-09T03:09:22;21.85;;;11.75;;
71677;SDS011;59511;52.136;6.206;2023-10-09T03:12:00;20.85;;;12.13;;
71677;SDS011;59511;52.136;6.206;2023-10-09T03:14:27;21.05;;;11.90;;
71677;SDS011;59511;52.136;6.206;2023-10-09T03:16:54;21.67;;;12.00;;
71677;SDS011;59511;52.136;6.206;2023-10-09T03:19:21;19.38;;;11.63;;
71677;SDS011;59511;52.136;6.206;2023-10-09T03:21:47;20.52;;;11.65;;
71677;SDS011;59511;52.136;6.206;2023-10-09T03:24:12;21.77;;;12.43;;
71677;SDS011;59511;52.136;6.206;2023-10-09T03:26:38;20.90;;;12.30;;
71677;SDS011;59511;52.136;6.206;2023-10-09T03:29:03;20.35;;;11.98;;
71677;SDS011;59511;52.136;6.206;2023-10-09T03:31:35;21.08;;;11.95;;
71677;SDS011;59511;52.136;6.206;2023-10-09T03:34:02;19.87;;;11.93;;
71677;SDS011;59511;52.136;6.206;2023-10-09T03:36:28;21.55;;;12.40;;
71677;SDS011;59511;52.136;6.206;2023-10-09T03:38:55;21.13;;;12.23;;
71677;SDS011;59511;52.136;6.206;2023-10-09T03:41:23;21.73;;;12.23;;
71677;SDS011;59511;52.136;6.206;2023-10-09T03:43:54;20.65;;;11.73;;
71677;SDS011;59511;52.136;6.206;2023-10-09T03:46:20;22.73;;;13.30;;
71677;SDS011;59511;52.136;6.206;2023-10-09T03:48:48;20.40;;;12.23;;
71677;SDS011;59511;52.136;6.206;2023-10-09T03:51:14;22.38;;;12.57;;
71677;SDS011;59511;52.136;6.206;2023-10-09T03:53:51;21.45;;;12.65;;
71677;SDS011;59511;52.136;6.206;2023-10-09T03:56:20;19.77;;;12.00;;
71677;SDS011;59511;52.136;6.206;2023-10-09T03:58:48;22.80;;;12.57;;
71677;SDS011;59511;52.136;6.206;2023-10-09T04:01:16;22.80;;;12.90;;
71677;SDS011;59511;52.136;6.206;2023-10-09T04:03:53;22.30;;;12.80;;
71677;SDS011;59511;52.136;6.206;2023-10-09T04:06:23;22.95;;;12.90;;
71677;SDS011;59511;52.136;6.206;2023-10-09T04:08:54;23.80;;;13.33;;
71677;SDS011;59511;52.136;6.206;2023-10-09T04:11:20;23.85;;;13.20;;
71677;SDS011;59511;52.136;6.206;2023-10-09T04:13:48;24.23;;;13.40;;
71677;SDS011;59511;52.136;6.206;2023-10-09T04:16:24;25.25;;;13.35;;
71677;SDS011;59511;52.136;6.206;2023-10-09T04:19:02;23.13;;;12.93;;
71677;SDS011;59511;52.136;6.206;2023-10-09T04:21:37;22.23;;;13.03;;
71677;SDS011;59511;52.136;6.206;2023-10-09T04:24:03;22.27;;;12.55;;
71677;SDS011;59511;52.136;6.206;2023-10-09T04:26:35;24.52;;;13.82;;
71677;SDS011;59511;52.136;6.206;2023-10-09T04:29:02;23.33;;;12.90;;
71677;SDS011;59511;52.136;6.206;2023-10-09T04:31:29;23.13;;;13.20;;
71677;SDS011;59511;52.136;6.206;2023-10-09T04:33:59;24.90;;;13.27;;
71677;SDS011;59511;52.136;6.206;2023-10-09T04:36:55;24.27;;;13.40;;
71677;SDS011;59511;52.136;6.206;2023-10-09T04:39:47;23.92;;;13.75;;
71677;SDS011;59511;52.136;6.206;2023-10-09T04:42:26;22.08;;;13.13;;
71677;SDS011;59511;52.136;6.206;2023-10-09T04:45:02;24.98;;;13.85;;
71677;SDS011;59511;52.136;6.206;2023-10-09T04:47:28;22.80;;;13.00;;
71677;SDS011;59511;52.136;6.206;2023-10-09T04:50:12;25.02;;;13.70;;
71677;SDS011;59511;52.136;6.206;2023-10-09T04:52:38;24.57;;;13.77;;
71677;SDS011;59511;52.136;6.206;2023-10-09T04:55:03;24.42;;;14.40;;
71677;SDS011;59511;52.136;6.206;2023-10-09T04:57:35;22.67;;;13.40;;
71677;SDS011;59511;52.136;6.206;2023-10-09T05:00:24;23.23;;;13.98;;
71677;SDS011;59511;52.136;6.206;2023-10-09T05:02:50;24.17;;;14.47;;
71677;SDS011;59511;52.136;6.206;2023-10-09T05:05:26;23.92;;;14.07;;
71677;SDS011;59511;52.136;6.206;2023-10-09T05:08:13;25.17;;;13.73;;
71677;SDS011;59511;52.136;6.206;2023-10-09T05:10:53;26.25;;;13.80;;
71677;SDS011;59511;52.136;6.206;2023-10-09T05:13:34;24.13;;;13.93;;
71677;SDS011;59511;52.136;6.206;2023-10-09T05:16:04;24.63;;;13.73;;
71677;SDS011;59511;52.136;6.206;2023-10-09T05:18:29;23.65;;;13.68;;
71677;SDS011;59511;52.136;6.206;2023-10-09T05:21:02;25.45;;;14.18;;
71677;SDS011;59511;52.136;6.206;2023-10-09T05:23:51;23.67;;;13.43;;
71677;SDS011;59511;52.136;6.206;2023-10-09T05:26:55;24.77;;;14.67;;
71677;SDS011;59511;52.136;6.206;2023-10-09T05:29:37;25.55;;;14.40;;
71677;SDS011;59511;52.136;6.206;2023-10-09T05:32:14;23.50;;;14.40;;
71677;SDS011;59511;52.136;6.206;2023-10-09T05:34:43;24.77;;;14.13;;
71677;SDS011;59511;52.136;6.206;2023-10-09T05:37:40;24.42;;;14.52;;
71677;SDS011;59511;52.136;6.206;2023-10-09T05:40:09;23.95;;;14.50;;
71677;SDS011;59511;52.136;6.206;2023-10-09T05:42:41;25.33;;;14.25;;
71677;SDS011;59511;52.136;6.206;2023-10-09T05:45:16;24.57;;;14.67;;
71677;SDS011;59511;52.136;6.206;2023-10-09T05:47:45;27.00;;;14.15;;
71677;SDS011;59511;52.136;6.206;2023-10-09T05:50:31;26.42;;;15.13;;
71677;SDS011;59511;52.136;6.206;2023-10-09T05:52:57;25.60;;;14.27;;
71677;SDS011;59511;52.136;6.206;2023-10-09T05:55:31;23.65;;;13.95;;
71677;SDS011;59511;52.136;6.206;2023-10-09T05:58:14;25.55;;;13.98;;
71677;SDS011;59511;52.136;6.206;2023-10-09T06:01:04;23.73;;;14.45;;
71677;SDS011;59511;52.136;6.206;2023-10-09T06:03:50;25.00;;;14.38;;
71677;SDS011;59511;52.136;6.206;2023-10-09T06:06:34;23.40;;;14.03;;
71677;SDS011;59511;52.136;6.206;2023-10-09T06:09:08;26.15;;;14.80;;
71677;SDS011;59511;52.136;6.206;2023-10-09T06:11:42;25.85;;;14.90;;
71677;SDS011;59511;52.136;6.206;2023-10-09T06:14:17;24.63;;;14.50;;
71677;SDS011;59511;52.136;6.206;2023-10-09T06:16:56;23.23;;;13.52;;
71677;SDS011;59511;52.136;6.206;2023-10-09T06:19:22;24.87;;;14.30;;
71677;SDS011;59511;52.136;6.206;2023-10-09T06:22:00;23.98;;;14.45;;
71677;SDS011;59511;52.136;6.206;2023-10-09T06:24:29;24.88;;;14.63;;
71677;SDS011;59511;52.136;6.206;2023-10-09T06:27:07;22.13;;;13.77;;
71677;SDS011;59511;52.136;6.206;2023-10-09T06:29:57;22.77;;;13.48;;
71677;SDS011;59511;52.136;6.206;2023-10-09T06:32:42;24.50;;;14.60;;
71677;SDS011;59511;52.136;6.206;2023-10-09T06:35:37;25.98;;;14.73;;
71677;SDS011;59511;52.136;6.206;2023-10-09T06:38:04;23.52;;;15.02;;
71677;SDS011;59511;52.136;6.206;2023-10-09T06:40:47;23.90;;;14.40;;
71677;SDS011;59511;52.136;6.206;2023-10-09T06:43:31;24.60;;;14.13;;
71677;SDS011;59511;52.136;6.206;2023-10-09T06:46:01;25.37;;;14.40;;
71677;SDS011;59511;52.136;6.206;2023-10-09T06:48:46;25.90;;;14.98;;
71677;SDS011;59511;52.136;6.206;2023-10-09T06:51:20;25.00;;;14.30;;
71677;SDS011;59511;52.136;6.206;2023-10-09T06:53:49;25.58;;;14.75;;
71677;SDS011;59511;52.136;6.206;2023-10-09T06:56:28;22.63;;;13.80;;
71677;SDS011;59511;52.136;6.206;2023-10-09T06:58:54;25.57;;;14.20;;
71677;SDS011;59511;52.136;6.206;2023-10-09T07:01:24;24.98;;;14.63;;
71677;SDS011;59511;52.136;6.206;2023-10-09T07:03:53;26.08;;;15.23;;
71677;SDS011;59511;52.136;6.206;2023-10-09T07:06:19;25.50;;;14.98;;
71677;SDS011;59511;52.136;6.206;2023-10-09T07:08:51;24.60;;;14.73;;
71677;SDS011;59511;52.136;6.206;2023-10-09T07:11:31;21.77;;;13.77;;
71677;SDS011;59511;52.136;6.206;2023-10-09T07:16:32;26.58;;;15.82;;
71677;SDS011;59511;52.136;6.206;2023-10-09T07:19:22;24.30;;;14.30;;
71677;SDS011;59511;52.136;6.206;2023-10-09T07:22:10;23.38;;;14.45;;
71677;SDS011;59511;52.136;6.206;2023-10-09T07:24:46;24.43;;;14.07;;
71677;SDS011;59511;52.136;6.206;2023-10-09T07:27:18;23.13;;;14.77;;
71677;SDS011;59511;52.136;6.206;2023-10-09T07:30:05;22.77;;;13.70;;
71677;SDS011;59511;52.136;6.206;2023-10-09T07:32:52;24.25;;;14.93;;
71677;SDS011;59511;52.136;6.206;2023-10-09T07:35:19;23.88;;;14.45;;
71677;SDS011;59511;52.136;6.206;2023-10-09T07:38:11;25.70;;;14.50;;
71677;SDS011;59511;52.136;6.206;2023-10-09T07:40:39;24.58;;;14.45;;
71677;SDS011;59511;52.136;6.206;2023-10-09T07:43:37;23.15;;;13.88;;
71677;SDS011;59511;52.136;6.206;2023-10-09T07:46:10;24.20;;;14.45;;
71677;SDS011;59511;52.136;6.206;2023-10-09T07:49:01;23.48;;;14.15;;
71677;SDS011;59511;52.136;6.206;2023-10-09T07:51:34;22.30;;;14.10;;
71677;SDS011;59511;52.136;6.206;2023-10-09T07:54:01;21.75;;;14.13;;
71677;SDS011;59511;52.136;6.206;2023-10-09T07:56:36;25.88;;;14.73;;
71677;SDS011;59511;52.136;6.206;2023-10-09T07:59:15;22.55;;;14.45;;
71677;SDS011;59511;52.136;6.206;2023-10-09T08:01:46;23.90;;;14.57;;
71677;SDS011;59511;52.136;6.206;2023-10-09T08:04:24;23.37;;;14.53;;
71677;SDS011;59511;52.136;6.206;2023-10-09T08:07:03;22.10;;;13.90;;
71677;SDS011;59511;52.136;6.206;2023-10-09T08:09:32;22.98;;;14.05;;
71677;SDS011;59511;52.136;6.206;2023-10-09T08:12:11;22.90;;;13.65;;
71677;SDS011;59511;52.136;6.206;2023-10-09T08:14:56;22.75;;;13.77;;
71677;SDS011;59511;52.136;6.206;2023-10-09T08:17:37;22.20;;;13.70;;
71677;SDS011;59511;52.136;6.206;2023-10-09T08:20:03;23.37;;;13.67;;
71677;SDS011;59511;52.136;6.206;2023-10-09T08:22:37;22.25;;;13.30;;
71677;SDS011;59511;52.136;6.206;2023-10-09T08:25:08;22.95;;;13.70;;
71677;SDS011;59511;52.136;6.206;2023-10-09T08:27:48;23.83;;;13.48;;
71677;SDS011;59511;52.136;6.206;2023-10-09T08:30:19;20.77;;;13.02;;
71677;SDS011;59511;52.136;6.206;2023-10-09T08:32:51;20.33;;;12.87;;
71677;SDS011;59511;52.136;6.206;2023-10-09T08:35:29;22.48;;;13.60;;
71677;SDS011;59511;52.136;6.206;2023-10-09T08:37:57;24.08;;;14.38;;
71677;SDS011;59511;52.136;6.206;2023-10-09T08:40:33;21.10;;;13.35;;
71677;SDS011;59511;52.136;6.206;2023-10-09T08:43:09;22.90;;;14.48;;
71677;SDS011;59511;52.136;6.206;2023-10-09T08:45:40;20.87;;;12.63;;
71677;SDS011;59511;52.136;6.206;2023-10-09T08:48:10;22.27;;;13.43;;
71677;SDS011;59511;52.136;6.206;2023-10-09T08:50:45;23.17;;;14.02;;
71677;SDS011;59511;52.136;6.206;2023-10-09T08:53:12;22.27;;;13.57;;
71677;SDS011;59511;52.136;6.206;2023-10-09T08:55:39;23.83;;;13.63;;
71677;SDS011;59511;52.136;6.206;2023-10-09T08:58:06;22.67;;;14.37;;
71677;SDS011;59511;52.136;6.206;2023-10-09T09:00:52;21.30;;;13.60;;
71677;SDS011;59511;52.136;6.206;2023-10-09T09:03:21;22.25;;;14.02;;
71677;SDS011;59511;52.136;6.206;2023-10-09T09:05:57;22.35;;;14.20;;
71677;SDS011;59511;52.136;6.206;2023-10-09T09:08:26;22.58;;;13.80;;
71677;SDS011;59511;52.136;6.206;2023-10-09T09:10:59;23.20;;;13.73;;
71677;SDS011;59511;52.136;6.206;2023-10-09T09:16:29;23.67;;;13.30;;
71677;SDS011;59511;52.136;6.206;2023-10-09T09:18:57;21.33;;;13.05;;
71677;SDS011;59511;52.136;6.206;2023-10-09T09:21:33;22.40;;;12.80;;
71677;SDS011;59511;52.136;6.206;2023-10-09T09:24:10;23.67;;;14.10;;
71677;SDS011;59511;52.136;6.206;2023-10-09T09:26:48;25.13;;;14.10;;
71677;SDS011;59511;52.136;6.206;2023-10-09T09:29:24;20.17;;;13.38;;
71677;SDS011;59511;52.136;6.206;2023-10-09T09:32:26;23.73;;;13.50;;
71677;SDS011;59511;52.136;6.206;2023-10-09T09:35:00;20.65;;;13.05;;
71677;SDS011;59511;52.136;6.206;2023-10-09T09:37:30;23.73;;;14.03;;
71677;SDS011;59511;52.136;6.206;2023-10-09T09:40:17;21.98;;;13.32;;
71677;SDS011;59511;52.136;6.206;2023-10-09T09:42:56;22.88;;;13.57;;
71677;SDS011;59511;52.136;6.206;2023-10-09T09:45:22;22.70;;;14.27;;
71677;SDS011;59511;52.136;6.206;2023-10-09T09:47:49;21.80;;;13.43;;
71677;SDS011;59511;52.136;6.206;2023-10-09T09:50:20;21.63;;;13.37;;
71677;SDS011;59511;52.136;6.206;2023-10-09T09:52:53;22.70;;;13.40;;
71677;SDS011;59511;52.136;6.206;2023-10-09T09:55:19;20.38;;;13.30;;
71677;SDS011;59511;52.136;6.206;2023-10-09T09:57:55;22.07;;;13.50;;
71677;SDS011;59511;52.136;6.206;2023-10-09T10:00:28;22.27;;;13.50;;
71677;SDS011;59511;52.136;6.206;2023-10-09T10:03:09;22.05;;;13.27;;
71677;SDS011;59511;52.136;6.206;2023-10-09T10:05:37;21.55;;;13.00;;
71677;SDS011;59511;52.136;6.206;2023-10-09T10:08:07;23.02;;;13.60;;
71677;SDS011;59511;52.136;6.206;2023-10-09T10:10:39;21.03;;;13.47;;
71677;SDS011;59511;52.136;6.206;2023-10-09T10:16:06;19.23;;;12.90;;
71677;SDS011;59511;52.136;6.206;2023-10-09T10:21:31;19.58;;;12.65;;
71677;SDS011;59511;52.136;6.206;2023-10-09T10:24:50;20.47;;;13.37;;
71677;SDS011;59511;52.136;6.206;2023-10-09T10:30:21;21.60;;;13.30;;
71677;SDS011;59511;52.136;6.206;2023-10-09T10:32:53;22.83;;;13.40;;
71677;SDS011;59511;52.136;6.206;2023-10-09T10:35:21;21.25;;;13.25;;
71677;SDS011;59511;52.136;6.206;2023-10-09T10:38:23;20.57;;;12.43;;
71677;SDS011;59511;52.136;6.206;2023-10-09T10:41:09;20.05;;;12.10;;
71677;SDS011;59511;52.136;6.206;2023-10-09T10:43:37;20.30;;;13.27;;
71677;SDS011;59511;52.136;6.206;2023-10-09T10:46:17;19.20;;;12.32;;
71677;SDS011;59511;52.136;6.206;2023-10-09T10:49:00;21.35;;;13.43;;
71677;SDS011;59511;52.136;6.206;2023-10-09T10:51:40;20.20;;;12.83;;
71677;SDS011;59511;52.136;6.206;2023-10-09T10:54:07;18.98;;;12.55;;
71677;SDS011;59511;52.136;6.206;2023-10-09T10:56:51;20.02;;;13.25;;
71677;SDS011;59511;52.136;6.206;2023-10-09T10:59:20;21.33;;;12.88;;
71677;SDS011;59511;52.136;6.206;2023-10-09T11:01:50;21.37;;;12.93;;
71677;SDS011;59511;52.136;6.206;2023-10-09T11:04:26;19.65;;;13.38;;
71677;SDS011;59511;52.136;6.206;2023-10-09T11:07:04;21.10;;;13.65;;
71677;SDS011;59511;52.136;6.206;2023-10-09T11:12:26;18.77;;;12.60;;
71677;SDS011;59511;52.136;6.206;2023-10-09T11:15:03;21.70;;;13.37;;
71677;SDS011;59511;52.136;6.206;2023-10-09T11:17:37;19.52;;;12.55;;
71677;SDS011;59511;52.136;6.206;2023-10-09T11:20:04;21.00;;;13.13;;
71677;SDS011;59511;52.136;6.206;2023-10-09T11:22:51;19.83;;;13.10;;
71677;SDS011;59511;52.136;6.206;2023-10-09T11:25:39;20.42;;;12.93;;
71677;SDS011;59511;52.136;6.206;2023-10-09T11:31:15;21.77;;;13.43;;
71677;SDS011;59511;52.136;6.206;2023-10-09T11:33:46;21.40;;;13.43;;
71677;SDS011;59511;52.136;6.206;2023-10-09T11:36:19;20.48;;;12.27;;
71677;SDS011;59511;52.136;6.206;2023-10-09T11:38:58;21.83;;;13.45;;
71677;SDS011;59511;52.136;6.206;2023-10-09T11:41:43;19.73;;;12.97;;
71677;SDS011;59511;52.136;6.206;2023-10-09T11:44:09;21.70;;;13.32;;
71677;SDS011;59511;52.136;6.206;2023-10-09T11:47:00;19.50;;;13.18;;
71677;SDS011;59511;52.136;6.206;2023-10-09T11:49:50;19.35;;;12.10;;
71677;SDS011;59511;52.136;6.206;2023-10-09T11:52:26;18.90;;;12.68;;
71677;SDS011;59511;52.136;6.206;2023-10-09T11:55:01;18.40;;;11.97;;
71677;SDS011;59511;52.136;6.206;2023-10-09T11:57:28;19.67;;;12.40;;
71677;SDS011;59511;52.136;6.206;2023-10-09T12:00:00;20.17;;;12.90;;
71677;SDS011;59511;52.136;6.206;2023-10-09T12:02:35;19.73;;;12.85;;
71677;SDS011;59511;52.136;6.206;2023-10-09T12:05:09;18.33;;;12.38;;
71677;SDS011;59511;52.136;6.206;2023-10-09T12:07:41;19.53;;;12.17;;
71677;SDS011;59511;52.136;6.206;2023-10-09T12:10:09;19.05;;;12.15;;
71677;SDS011;59511;52.136;6.206;2023-10-09T12:12:35;18.70;;;12.07;;
71677;SDS011;59511;52.136;6.206;2023-10-09T12:15:01;20.20;;;12.87;;
71677;SDS011;59511;52.136;6.206;2023-10-09T12:17:30;19.25;;;12.88;;
71677;SDS011;59511;52.136;6.206;2023-10-09T12:19:55;18.33;;;12.23;;
71677;SDS011;59511;52.136;6.206;2023-10-09T12:22:22;18.70;;;11.63;;
71677;SDS011;59511;52.136;6.206;2023-10-09T12:24:52;17.30;;;11.57;;
71677;SDS011;59511;52.136;6.206;2023-10-09T12:27:18;17.75;;;11.68;;
71677;SDS011;59511;52.136;6.206;2023-10-09T12:29:45;17.60;;;12.07;;
71677;SDS011;59511;52.136;6.206;2023-10-09T12:32:11;17.10;;;12.00;;
71677;SDS011;59511;52.136;6.206;2023-10-09T12:34:37;18.38;;;11.57;;
71677;SDS011;59511;52.136;6.206;2023-10-09T12:37:03;17.90;;;12.07;;
71677;SDS011;59511;52.136;6.206;2023-10-09T12:39:29;18.25;;;11.57;;
71677;SDS011;59511;52.136;6.206;2023-10-09T12:42:01;19.67;;;11.82;;
71677;SDS011;59511;52.136;6.206;2023-10-09T12:44:33;16.77;;;11.57;;
71677;SDS011;59511;52.136;6.206;2023-10-09T12:47:03;19.52;;;11.80;;
71677;SDS011;59511;52.136;6.206;2023-10-09T12:49:32;20.03;;;12.27;;
71677;SDS011;59511;52.136;6.206;2023-10-09T12:51:58;18.75;;;12.25;;
71677;SDS011;59511;52.136;6.206;2023-10-09T12:54:27;18.57;;;11.73;;
71677;SDS011;59511;52.136;6.206;2023-10-09T12:56:53;19.67;;;12.50;;
71677;SDS011;59511;52.136;6.206;2023-10-09T12:59:22;18.17;;;11.90;;
71677;SDS011;59511;52.136;6.206;2023-10-09T13:01:49;17.27;;;12.25;;
71677;SDS011;59511;52.136;6.206;2023-10-09T13:04:18;16.63;;;11.40;;
71677;SDS011;59511;52.136;6.206;2023-10-09T13:06:47;17.13;;;11.13;;
71677;SDS011;59511;52.136;6.206;2023-10-09T13:09:16;19.02;;;12.00;;
71677;SDS011;59511;52.136;6.206;2023-10-09T13:11:50;17.98;;;11.20;;
71677;SDS011;59511;52.136;6.206;2023-10-09T13:14:16;17.38;;;11.70;;
71677;SDS011;59511;52.136;6.206;2023-10-09T13:16:47;17.17;;;11.87;;
71677;SDS011;59511;52.136;6.206;2023-10-09T13:19:15;17.88;;;11.73;;
71677;SDS011;59511;52.136;6.206;2023-10-09T13:21:42;16.88;;;11.18;;
71677;SDS011;59511;52.136;6.206;2023-10-09T13:24:08;17.92;;;11.98;;
71677;SDS011;59511;52.136;6.206;2023-10-09T13:26:53;17.10;;;11.93;;
71677;SDS011;59511;52.136;6.206;2023-10-09T13:29:23;17.23;;;12.10;;
71677;SDS011;59511;52.136;6.206;2023-10-09T13:31:48;16.65;;;11.30;;
71677;SDS011;59511;52.136;6.206;2023-10-09T13:34:16;16.67;;;11.52;;
71677;SDS011;59511;52.136;6.206;2023-10-09T13:36:41;16.93;;;10.90;;
71677;SDS011;59511;52.136;6.206;2023-10-09T13:39:20;17.52;;;11.30;;
71677;SDS011;59511;52.136;6.206;2023-10-09T13:41:53;18.03;;;12.03;;
71677;SDS011;59511;52.136;6.206;2023-10-09T13:44:27;16.67;;;11.45;;
71677;SDS011;59511;52.136;6.206;2023-10-09T13:46:56;16.35;;;11.07;;
71677;SDS011;59511;52.136;6.206;2023-10-09T13:49:22;16.15;;;11.43;;
71677;SDS011;59511;52.136;6.206;2023-10-09T13:51:49;16.90;;;11.07;;
71677;SDS011;59511;52.136;6.206;2023-10-09T13:54:15;15.52;;;10.70;;
71677;SDS011;59511;52.136;6.206;2023-10-09T13:56:56;16.38;;;11.07;;
71677;SDS011;59511;52.136;6.206;2023-10-09T13:59:22;16.20;;;10.73;;
71677;SDS011;59511;52.136;6.206;2023-10-09T14:01:50;15.33;;;11.10;;
71677;SDS011;59511;52.136;6.206;2023-10-09T14:04:16;15.90;;;10.85;;
71677;SDS011;59511;52.136;6.206;2023-10-09T14:06:45;16.48;;;10.98;;
71677;SDS011;59511;52.136;6.206;2023-10-09T14:09:11;21.13;;;11.18;;
71677;SDS011;59511;52.136;6.206;2023-10-09T14:11:53;29.13;;;12.02;;
71677;SDS011;59511;52.136;6.206;2023-10-09T14:14:39;32.00;;;11.77;;
71677;SDS011;59511;52.136;6.206;2023-10-09T14:19:49;26.48;;;12.55;;
71677;SDS011;59511;52.136;6.206;2023-10-09T14:22:20;25.95;;;12.73;;
71677;SDS011;59511;52.136;6.206;2023-10-09T14:24:47;26.45;;;11.85;;
71677;SDS011;59511;52.136;6.206;2023-10-09T14:27:14;22.27;;;11.23;;
71677;SDS011;59511;52.136;6.206;2023-10-09T14:29:44;23.95;;;11.57;;
71677;SDS011;59511;52.136;6.206;2023-10-09T14:32:14;20.70;;;10.82;;
71677;SDS011;59511;52.136;6.206;2023-10-09T14:34:41;19.92;;;11.40;;
71677;SDS011;59511;52.136;6.206;2023-10-09T14:37:16;21.13;;;10.45;;
71677;SDS011;59511;52.136;6.206;2023-10-09T14:39:44;18.70;;;10.50;;
71677;SDS011;59511;52.136;6.206;2023-10-09T14:42:20;18.67;;;11.40;;
71677;SDS011;59511;52.136;6.206;2023-10-09T14:44:48;18.25;;;10.45;;
71677;SDS011;59511;52.136;6.206;2023-10-09T14:47:15;18.27;;;11.27;;
71677;SDS011;59511;52.136;6.206;2023-10-09T14:49:40;18.90;;;10.73;;
71677;SDS011;59511;52.136;6.206;2023-10-09T14:52:10;16.23;;;10.68;;
71677;SDS011;59511;52.136;6.206;2023-10-09T14:54:35;19.65;;;10.85;;
71677;SDS011;59511;52.136;6.206;2023-10-09T14:57:01;17.40;;;10.90;;
71677;SDS011;59511;52.136;6.206;2023-10-09T14:59:31;19.65;;;10.95;;
71677;SDS011;59511;52.136;6.206;2023-10-09T15:01:57;16.57;;;10.77;;
71677;SDS011;59511;52.136;6.206;2023-10-09T15:04:24;17.98;;;10.52;;
71677;SDS011;59511;52.136;6.206;2023-10-09T15:06:51;18.25;;;10.60;;
71677;SDS011;59511;52.136;6.206;2023-10-09T15:09:19;21.40;;;10.65;;
71677;SDS011;59511;52.136;6.206;2023-10-09T15:11:48;17.50;;;10.00;;
71677;SDS011;59511;52.136;6.206;2023-10-09T15:14:14;17.17;;;10.43;;
71677;SDS011;59511;52.136;6.206;2023-10-09T15:16:41;17.55;;;10.50;;
71677;SDS011;59511;52.136;6.206;2023-10-09T15:19:07;19.77;;;10.50;;
71677;SDS011;59511;52.136;6.206;2023-10-09T15:21:35;17.50;;;11.13;;
71677;SDS011;59511;52.136;6.206;2023-10-09T15:24:09;15.68;;;10.05;;
71677;SDS011;59511;52.136;6.206;2023-10-09T15:26:40;17.03;;;10.50;;